createdAt,value
2023-03-26T00:01:46.833Z,99953.87
2023-03-26T00:04:21.938Z,99961.23
2023-03-26T00:06:51.301Z,99954.28
2023-03-26T00:09:19.840Z,99950.55
2023-03-26T00:11:52.291Z,99943.06
2023-03-26T00:14:25.353Z,99944.54
2023-03-26T00:16:55.115Z,99941.87
2023-03-26T00:19:25.549Z,99938.55
2023-03-26T00:21:54.358Z,99941.30
2023-03-26T00:24:29.920Z,99945.73
2023-03-26T00:27:04.709Z,99944.99
2023-03-26T00:29:37.572Z,99940.16
2023-03-26T00:32:06.462Z,99942.61
2023-03-26T00:34:35.730Z,99937.13
2023-03-26T00:37:04.443Z,99934.91
2023-03-26T00:39:35.920Z,99931.13
2023-03-26T00:42:07.114Z,99928.69
2023-03-26T00:44:35.751Z,99924.56
2023-03-26T00:47:04.519Z,99926.03
2023-03-26T00:49:33.518Z,99927.01
2023-03-26T00:52:04.276Z,99921.98
2023-03-26T00:54:33.323Z,99928.61
2023-03-26T00:57:07.074Z,99920.51
2023-03-26T00:59:36.521Z,99926.23
2023-03-26T01:02:05.224Z,99925.56
2023-03-26T01:04:35.319Z,99923.23
2023-03-26T01:07:10.402Z,99920.92
2023-03-26T01:09:43.041Z,99917.80
2023-03-26T01:12:22.459Z,99915.63
2023-03-26T01:14:52.065Z,99909.77
2023-03-26T01:17:22.186Z,99912.33
2023-03-26T01:20:05.885Z,99914.23
2023-03-26T01:22:35.007Z,99913.02
2023-03-26T01:25:04.071Z,99908.11
2023-03-26T01:27:52.568Z,99901.00
2023-03-26T01:30:41.762Z,99894.84
2023-03-26T01:33:41.503Z,99895.80
2023-03-26T01:36:35.024Z,99890.76
2023-03-26T01:39:39.050Z,99892.53
2023-03-26T01:42:11.206Z,99890.50
2023-03-26T01:44:59.943Z,99884.27
2023-03-26T01:47:28.915Z,99882.48
2023-03-26T01:49:57.473Z,99874.00
2023-03-26T01:52:26.545Z,99877.77
2023-03-26T01:54:56.449Z,99870.47
2023-03-26T01:57:49.502Z,99877.77
2023-03-26T02:00:33.094Z,99880.55
2023-03-26T02:03:18.278Z,99881.21
2023-03-26T02:06:08.077Z,99882.98
2023-03-26T02:09:08.230Z,99881.73
2023-03-26T02:11:37.206Z,99887.36
2023-03-26T02:14:08.670Z,99887.63
2023-03-26T02:16:37.559Z,99889.19
2023-03-26T02:19:15.976Z,99884.83
2023-03-26T02:21:46.173Z,99883.94
2023-03-26T02:24:14.930Z,99878.30
2023-03-26T02:26:43.467Z,99873.73
2023-03-26T02:29:14.607Z,99870.09
2023-03-26T02:31:51.253Z,99874.30
2023-03-26T02:34:20.099Z,99880.91
2023-03-26T02:36:53.004Z,99879.91
2023-03-26T02:39:22.038Z,99878.73
2023-03-26T02:42:03.503Z,99875.89
2023-03-26T02:44:34.029Z,99878.86
2023-03-26T02:47:02.570Z,99876.65
2023-03-26T02:49:39.387Z,99879.16
2023-03-26T02:52:08.216Z,99885.08
2023-03-26T02:54:38.577Z,99880.95
2023-03-26T02:57:16.916Z,99877.06
2023-03-26T03:00:16.127Z,99875.54
2023-03-26T03:02:48.882Z,99873.88
2023-03-26T03:05:33.052Z,99862.55
2023-03-26T03:08:29.523Z,99856.70
2023-03-26T03:11:11.693Z,99859.35
2023-03-26T03:13:49.865Z,99857.89
2023-03-26T03:16:23.252Z,99855.00
2023-03-26T03:18:58.132Z,99858.92
2023-03-26T03:21:38.560Z,99862.50
2023-03-26T03:24:09.503Z,99851.34
2023-03-26T03:26:42.576Z,99852.59
2023-03-26T03:29:25.578Z,99858.76
2023-03-26T03:31:55.803Z,99857.27
2023-03-26T03:34:44.270Z,99853.80
2023-03-26T03:37:13.273Z,99853.18
2023-03-26T03:39:49.514Z,99848.34
2023-03-26T03:42:20.722Z,99840.80
2023-03-26T03:44:50.255Z,99837.33
2023-03-26T03:47:47.738Z,99840.77
2023-03-26T03:50:20.131Z,99839.25
2023-03-26T03:52:59.469Z,99837.44
2023-03-26T03:55:28.392Z,99832.02
2023-03-26T03:58:00.191Z,99828.42
2023-03-26T04:00:32.588Z,99833.59
2023-03-26T04:03:16.698Z,99839.80
2023-03-26T04:05:49.809Z,99833.61
2023-03-26T04:08:18.784Z,99823.38
2023-03-26T04:10:51.299Z,99829.93
2023-03-26T04:13:40.598Z,99836.56
2023-03-26T04:16:27.635Z,99844.77
2023-03-26T04:19:02.414Z,99845.98
2023-03-26T04:21:32.296Z,99854.92
2023-03-26T04:24:01.944Z,99848.25
2023-03-26T04:26:53.594Z,99847.60
2023-03-26T04:29:28.232Z,99853.02
2023-03-26T04:32:06.855Z,99847.88
2023-03-26T04:34:36.930Z,99846.79
2023-03-26T04:37:19.212Z,99848.55
2023-03-26T04:39:55.545Z,99847.92
2023-03-26T04:42:46.367Z,99851.98
2023-03-26T04:45:25.931Z,99848.18
2023-03-26T04:47:58.494Z,99855.61
2023-03-26T04:50:27.347Z,99859.83
2023-03-26T04:52:57.039Z,99862.45
2023-03-26T04:56:09.064Z,99869.71
2023-03-26T04:58:57.186Z,99864.11
2023-03-26T05:01:28.607Z,99869.73
2023-03-26T05:03:58.872Z,99862.81
2023-03-26T05:06:29.052Z,99859.20
2023-03-26T05:08:58.042Z,99859.59
2023-03-26T05:11:43.910Z,99861.27
2023-03-26T05:14:12.670Z,99861.86
2023-03-26T05:16:45.083Z,99859.40
2023-03-26T05:19:13.906Z,99866.80
2023-03-26T05:21:42.427Z,99868.80
2023-03-26T05:24:11.044Z,99863.63
2023-03-26T05:26:39.954Z,99856.85
2023-03-26T05:29:09.428Z,99866.48
2023-03-26T05:31:46.476Z,99864.98
2023-03-26T05:34:15.609Z,99866.78
2023-03-26T05:36:45.831Z,99866.10
2023-03-26T05:39:34.156Z,99866.09
2023-03-26T05:42:26.311Z,99870.95
2023-03-26T05:45:08.516Z,99860.42
2023-03-26T05:47:37.639Z,99858.70
2023-03-26T05:50:09.223Z,99860.97
2023-03-26T05:52:40.879Z,99869.61
2023-03-26T05:55:46.160Z,99864.27
2023-03-26T05:58:34.061Z,99853.98
2023-03-26T06:01:08.798Z,99845.67
2023-03-26T06:04:03.040Z,99848.35
2023-03-26T06:06:36.466Z,99856.86
2023-03-26T06:09:05.440Z,99850.88
2023-03-26T06:11:34.500Z,99846.17
2023-03-26T06:14:09.280Z,99859.51
2023-03-26T06:16:41.151Z,99863.71
2023-03-26T06:19:23.153Z,99858.89
2023-03-26T06:22:00.579Z,99857.61
2023-03-26T06:24:39.096Z,99865.48
2023-03-26T06:27:11.430Z,99866.11
2023-03-26T06:30:07.355Z,99865.43
2023-03-26T06:32:44.182Z,99857.63
2023-03-26T06:35:18.641Z,99856.50
2023-03-26T06:37:47.688Z,99862.49
2023-03-26T06:40:16.771Z,99859.50
2023-03-26T06:43:08.625Z,99859.25
2023-03-26T06:45:57.645Z,99856.50
2023-03-26T06:48:56.282Z,99856.59
2023-03-26T06:51:46.757Z,99853.48
2023-03-26T06:54:47.944Z,99857.56
2023-03-26T06:57:35.630Z,99850.54
2023-03-26T07:00:25.776Z,99844.55
2023-03-26T07:03:13.930Z,99848.19
2023-03-26T07:06:04.850Z,99847.94
2023-03-26T07:08:52.537Z,99844.45
2023-03-26T07:11:40.380Z,99847.75
2023-03-26T07:14:32.963Z,99843.73
2023-03-26T07:17:27.355Z,99843.04
2023-03-26T07:20:07.412Z,99840.61
2023-03-26T07:22:37.318Z,99845.71
2023-03-26T07:25:06.827Z,99849.16
2023-03-26T07:28:18.520Z,99849.64
2023-03-26T07:31:37.889Z,99849.98
2023-03-26T07:34:54.104Z,99843.99
2023-03-26T07:37:32.158Z,99845.70
2023-03-26T07:40:35.087Z,99849.42
2023-03-26T07:43:59.076Z,99848.26
2023-03-26T07:46:48.206Z,99844.38
2023-03-26T07:49:35.521Z,99845.52
2023-03-26T07:52:19.436Z,99847.15
2023-03-26T07:55:05.386Z,99845.80
2023-03-26T07:58:01.469Z,99849.10
2023-03-26T08:00:46.842Z,99845.11
2023-03-26T08:03:49.237Z,99838.02
2023-03-26T08:06:39.570Z,99827.09
2023-03-26T08:09:46.670Z,99835.14
2023-03-26T08:12:49.600Z,99826.04
2023-03-26T08:15:32.920Z,99826.85
2023-03-26T08:18:20.225Z,99825.41
2023-03-26T08:20:54.620Z,99829.37
2023-03-26T08:23:28.108Z,99820.09
2023-03-26T08:26:17.628Z,99824.41
2023-03-26T08:28:53.135Z,99824.90
2023-03-26T08:31:27.823Z,99827.36
2023-03-26T08:33:56.608Z,99830.05
2023-03-26T08:36:26.954Z,99829.54
2023-03-26T08:38:55.628Z,99827.66
2023-03-26T08:41:50.837Z,99825.14
2023-03-26T08:44:51.864Z,99828.79
2023-03-26T08:47:47.045Z,99825.96
2023-03-26T08:50:28.470Z,99824.02
2023-03-26T08:53:10.581Z,99820.21
2023-03-26T08:56:04.721Z,99819.08
2023-03-26T08:58:53.246Z,99813.45
2023-03-26T09:01:45.753Z,99820.02
2023-03-26T09:04:30.075Z,99813.70
2023-03-26T09:07:10.224Z,99815.77
2023-03-26T09:09:54.432Z,99811.58
2023-03-26T09:12:45.461Z,99805.63
2023-03-26T09:15:51.578Z,99809.34
2023-03-26T09:18:35.837Z,99807.48
2023-03-26T09:21:21.749Z,99806.54
2023-03-26T09:24:12.276Z,99809.36
2023-03-26T09:27:02.534Z,99797.39
2023-03-26T09:29:52.045Z,99796.06
2023-03-26T09:32:39.871Z,99798.09
2023-03-26T09:35:28.010Z,99792.44
2023-03-26T09:38:01.251Z,99793.06
2023-03-26T09:40:42.741Z,99790.90
2023-03-26T09:43:32.561Z,99789.45
2023-03-26T09:46:30.969Z,99784.53
2023-03-26T09:49:08.337Z,99780.61
2023-03-26T09:52:03.544Z,99781.00
2023-03-26T09:54:48.703Z,99778.82
2023-03-26T09:57:34.573Z,99773.20
2023-03-26T10:00:07.730Z,99774.36
2023-03-26T10:02:47.039Z,99773.29
2023-03-26T10:05:20.327Z,99771.04
2023-03-26T10:07:51.393Z,99765.36
2023-03-26T10:10:26.002Z,99771.33
2023-03-26T10:13:22.173Z,99772.36
2023-03-26T10:16:06.684Z,99765.23
2023-03-26T10:18:53.652Z,99766.77
2023-03-26T10:21:44.616Z,99761.58
2023-03-26T10:24:31.150Z,99761.48
2023-03-26T10:27:09.838Z,99762.63
2023-03-26T10:30:02.387Z,99763.20
2023-03-26T10:32:49.209Z,99762.63
2023-03-26T10:35:30.545Z,99763.27
2023-03-26T10:38:02.517Z,99763.08
2023-03-26T10:40:55.716Z,99769.68
2023-03-26T10:43:31.426Z,99767.41
2023-03-26T10:46:05.415Z,99765.92
2023-03-26T10:48:53.681Z,99760.39
2023-03-26T10:51:39.874Z,99755.73
2023-03-26T10:54:20.529Z,99751.83
2023-03-26T10:56:50.376Z,99752.64
2023-03-26T10:59:19.420Z,99749.70
2023-03-26T11:02:35.973Z,99743.53
2023-03-26T11:05:26.156Z,99738.60
2023-03-26T11:08:18.206Z,99736.92
2023-03-26T11:10:56.325Z,99738.55
2023-03-26T11:13:30.171Z,99743.36
2023-03-26T11:16:14.806Z,99741.83
2023-03-26T11:18:55.888Z,99743.17
2023-03-26T11:21:48.748Z,99736.84
2023-03-26T11:24:24.370Z,99739.61
2023-03-26T11:27:15.543Z,99741.42
2023-03-26T11:29:52.738Z,99741.36
2023-03-26T11:32:23.986Z,99735.88
2023-03-26T11:35:04.444Z,99730.60
2023-03-26T11:38:20.654Z,99732.07
2023-03-26T11:40:53.281Z,99730.26
2023-03-26T11:43:36.581Z,99728.22
2023-03-26T11:46:07.963Z,99724.87
2023-03-26T11:48:40.752Z,99718.91
2023-03-26T11:51:20.686Z,99715.93
2023-03-26T11:53:49.525Z,99714.24
2023-03-26T11:56:23.931Z,99717.32
2023-03-26T11:58:58.263Z,99715.14
2023-03-26T12:01:44.409Z,99714.98
2023-03-26T12:04:14.786Z,99712.94
2023-03-26T12:06:59.920Z,99707.73
2023-03-26T12:09:28.602Z,99707.45
2023-03-26T12:12:03.354Z,99709.15
2023-03-26T12:14:34.328Z,99711.20
2023-03-26T12:17:12.124Z,99707.69
2023-03-26T12:19:44.354Z,99707.91
2023-03-26T12:22:39.008Z,99701.05
2023-03-26T12:25:21.594Z,99695.61
2023-03-26T12:27:59.233Z,99693.04
2023-03-26T12:30:30.981Z,99698.38
2023-03-26T12:33:06.288Z,99695.60
2023-03-26T12:35:35.425Z,99685.85
2023-03-26T12:38:22.437Z,99681.38
2023-03-26T12:43:40.263Z,99684.86
2023-03-26T12:44:56.100Z,99682.35
2023-03-26T12:47:57.154Z,99684.23
2023-03-26T12:49:48.215Z,99680.80
2023-03-26T12:52:25.979Z,99684.16
2023-03-26T12:55:01.324Z,99683.81
2023-03-26T12:57:44.724Z,99684.72
2023-03-26T13:00:14.281Z,99683.45
2023-03-26T13:02:50.807Z,99685.03
2023-03-26T13:05:32.700Z,99684.73
2023-03-26T13:08:32.922Z,99679.02
2023-03-26T13:11:01.490Z,99680.73
2023-03-26T13:13:41.409Z,99675.33
2023-03-26T13:16:13.794Z,99669.64
2023-03-26T13:18:57.128Z,99668.20
2023-03-26T13:21:30.722Z,99666.34
2023-03-26T13:24:31.073Z,99662.70
2023-03-26T13:27:18.603Z,99659.63
2023-03-26T13:29:56.712Z,99655.27
2023-03-26T13:32:43.297Z,99654.38
2023-03-26T13:35:39.751Z,99654.77
2023-03-26T13:38:37.247Z,99659.09
2023-03-26T13:41:09.812Z,99657.14
2023-03-26T13:43:51.386Z,99652.84
2023-03-26T13:46:31.303Z,99651.52
2023-03-26T13:49:04.001Z,99654.57
2023-03-26T13:51:43.682Z,99654.85
2023-03-26T13:54:23.935Z,99652.77
2023-03-26T13:56:57.842Z,99652.69
2023-03-26T13:59:47.483Z,99652.95
2023-03-26T14:02:21.970Z,99649.14
2023-03-26T14:04:53.800Z,99646.00
2023-03-26T14:07:27.946Z,99645.02
2023-03-26T14:10:10.432Z,99640.73
2023-03-26T14:13:15.301Z,99637.84
2023-03-26T14:16:03.650Z,99633.33
2023-03-26T14:18:47.707Z,99629.20
2023-03-26T14:21:44.445Z,99625.00
2023-03-26T14:24:53.673Z,99624.64
2023-03-26T14:27:22.329Z,99618.38
2023-03-26T14:29:58.973Z,99615.84
2023-03-26T14:32:40.048Z,99612.73
2023-03-26T14:35:26.652Z,99613.46
2023-03-26T14:38:13.325Z,99610.95
2023-03-26T14:40:58.835Z,99611.67
2023-03-26T14:43:46.623Z,99611.08
2023-03-26T14:46:25.191Z,99614.23
2023-03-26T14:49:03.856Z,99609.22
2023-03-26T14:51:59.606Z,99611.10
2023-03-26T14:54:35.635Z,99602.30
2023-03-26T14:57:10.045Z,99602.38
2023-03-26T14:59:44.575Z,99604.46
2023-03-26T15:02:35.192Z,99603.48
2023-03-26T15:05:22.421Z,99605.14
2023-03-26T15:08:33.732Z,99605.75
2023-03-26T15:11:21.748Z,99608.23
2023-03-26T15:14:38.195Z,99612.16
2023-03-26T15:17:31.241Z,99609.58
2023-03-26T15:20:36.927Z,99612.15
2023-03-26T15:23:43.154Z,99608.11
2023-03-26T15:26:43.205Z,99607.77
2023-03-26T15:29:46.112Z,99603.80
2023-03-26T15:32:36.994Z,99603.05
2023-03-26T15:35:35.056Z,99596.61
2023-03-26T15:38:31.799Z,99595.86
2023-03-26T15:41:19.635Z,99597.80
2023-03-26T15:44:23.941Z,99595.48
2023-03-26T15:47:32.049Z,99594.69
2023-03-26T15:50:19.434Z,99593.07
2023-03-26T15:53:09.930Z,99593.19
2023-03-26T15:55:46.144Z,99588.49
2023-03-26T15:58:37.040Z,99589.39
2023-03-26T16:01:19.267Z,99585.04
2023-03-26T16:04:06.441Z,99584.98
2023-03-26T16:06:41.825Z,99584.71
2023-03-26T16:09:17.324Z,99585.94
2023-03-26T16:11:57.296Z,99587.73
2023-03-26T16:14:36.288Z,99589.58
2023-03-26T16:17:06.757Z,99589.54
2023-03-26T16:19:52.131Z,99589.39
2023-03-26T16:22:56.030Z,99592.35
2023-03-26T16:25:29.737Z,99597.75
2023-03-26T16:28:35.615Z,99601.34
2023-03-26T16:31:37.677Z,99606.23
2023-03-26T16:34:12.230Z,99601.05
2023-03-26T16:36:50.062Z,99606.97
2023-03-26T16:39:19.260Z,99605.71
2023-03-26T16:41:50.625Z,99611.24
2023-03-26T16:44:48.682Z,99610.89
2023-03-26T16:47:32.895Z,99613.08
2023-03-26T16:50:26.241Z,99614.80
2023-03-26T16:53:17.730Z,99616.15
2023-03-26T16:55:59.175Z,99616.43
2023-03-26T16:58:58.818Z,99617.42
2023-03-26T17:02:08.677Z,99618.25
2023-03-26T17:04:37.968Z,99617.33
2023-03-26T17:07:08.972Z,99622.19
2023-03-26T17:10:26.207Z,99620.28
2023-03-26T17:12:54.744Z,99628.57
2023-03-26T17:16:08.145Z,99633.87
2023-03-26T17:18:36.783Z,99632.31
2023-03-26T17:21:17.688Z,99634.21
2023-03-26T17:24:16.269Z,99634.53
2023-03-26T17:27:24.434Z,99634.05
2023-03-26T17:30:32.724Z,99634.04
2023-03-26T17:33:02.396Z,99633.55
2023-03-26T17:35:43.926Z,99630.99
2023-03-26T17:38:19.386Z,99630.16
2023-03-26T17:40:55.044Z,99628.71
2023-03-26T17:43:56.609Z,99633.28
2023-03-26T17:46:36.442Z,99631.39
2023-03-26T17:49:33.670Z,99635.35
2023-03-26T17:52:06.034Z,99632.98
2023-03-26T17:55:01.893Z,99634.14
2023-03-26T17:57:40.349Z,99631.52
2023-03-26T18:00:25.561Z,99633.52
2023-03-26T18:03:01.557Z,99631.77
2023-03-26T18:05:30.597Z,99632.67
2023-03-26T18:08:23.041Z,99631.77
2023-03-26T18:11:14.705Z,99630.98
2023-03-26T18:13:46.165Z,99629.35
2023-03-26T18:16:17.314Z,99624.23
2023-03-26T18:18:46.418Z,99626.46
2023-03-26T18:21:29.206Z,99626.42
2023-03-26T18:23:59.538Z,99628.27
2023-03-26T18:26:38.081Z,99629.21
2023-03-26T18:29:18.577Z,99624.56
2023-03-26T18:31:49.349Z,99624.89
2023-03-26T18:34:19.289Z,99627.02
2023-03-26T18:37:21.408Z,99623.64
2023-03-26T18:40:00.989Z,99623.27
2023-03-26T18:42:30.679Z,99625.84
2023-03-26T18:45:02.086Z,99621.16
2023-03-26T18:47:32.485Z,99623.69
2023-03-26T18:50:01.122Z,99618.45
2023-03-26T18:52:30.022Z,99623.16
2023-03-26T18:54:59.527Z,99625.27
2023-03-26T18:57:28.827Z,99619.13
2023-03-26T19:00:09.877Z,99617.14
2023-03-26T19:02:38.641Z,99612.56
2023-03-26T19:05:07.874Z,99612.73
2023-03-26T19:07:38.008Z,99612.95
2023-03-26T19:10:15.604Z,99611.09
2023-03-26T19:12:46.709Z,99611.24
2023-03-26T19:15:17.486Z,99609.92
2023-03-26T19:17:56.801Z,99614.63
2023-03-26T19:20:27.590Z,99614.83
2023-03-26T19:22:58.643Z,99614.09
2023-03-26T19:25:33.727Z,99614.26
2023-03-26T19:28:05.706Z,99613.77
2023-03-26T19:30:36.601Z,99612.40
2023-03-26T19:33:13.861Z,99612.20
2023-03-26T19:35:46.130Z,99609.15
2023-03-26T19:38:25.814Z,99609.94
2023-03-26T19:40:59.138Z,99610.56
2023-03-26T19:43:29.025Z,99607.45
2023-03-26T19:46:00.195Z,99606.87
2023-03-26T19:48:46.804Z,99604.48
2023-03-26T19:51:31.791Z,99599.73
2023-03-26T19:54:14.125Z,99598.96
2023-03-26T19:56:43.735Z,99595.05
2023-03-26T19:59:14.403Z,99594.91
2023-03-26T20:01:43.085Z,99595.41
2023-03-26T20:04:12.082Z,99594.40
2023-03-26T20:06:44.135Z,99588.50
2023-03-26T20:09:14.479Z,99586.94
2023-03-26T20:11:44.288Z,99588.50
2023-03-26T20:14:21.648Z,99584.59
2023-03-26T20:16:50.311Z,99583.86
2023-03-26T20:19:19.328Z,99584.98
2023-03-26T20:21:56.017Z,99580.45
2023-03-26T20:24:25.623Z,99580.48
2023-03-26T20:26:54.200Z,99577.77
2023-03-26T20:29:28.882Z,99575.54
2023-03-26T20:31:58.063Z,99575.16
2023-03-26T20:34:28.135Z,99576.70
2023-03-26T20:37:01.338Z,99572.98
2023-03-26T20:39:31.163Z,99574.39
2023-03-26T20:42:00.938Z,99570.57
2023-03-26T20:44:30.981Z,99574.21
2023-03-26T20:47:00.640Z,99571.02
2023-03-26T20:49:32.608Z,99572.27
2023-03-26T20:52:01.259Z,99572.27
2023-03-26T20:54:31.299Z,99575.86
2023-03-26T20:57:00.179Z,99575.02
2023-03-26T20:59:33.359Z,99571.55
2023-03-26T21:02:02.313Z,99571.33
2023-03-26T21:04:32.393Z,99571.90
2023-03-26T21:07:11.116Z,99569.61
2023-03-26T21:09:47.806Z,99570.02
2023-03-26T21:12:29.793Z,99572.69
2023-03-26T21:15:07.223Z,99574.15
2023-03-26T21:17:40.859Z,99572.95
2023-03-26T21:20:14.160Z,99567.36
2023-03-26T21:23:20.533Z,99570.54
2023-03-26T21:25:53.374Z,99569.05
2023-03-26T21:28:41.823Z,99568.44
2023-03-26T21:31:18.752Z,99563.28
2023-03-26T21:33:48.029Z,99559.95
2023-03-26T21:36:18.309Z,99560.04
2023-03-26T21:38:47.582Z,99555.56
2023-03-26T21:41:36.099Z,99554.23
2023-03-26T21:44:04.801Z,99552.48
2023-03-26T21:46:33.665Z,99556.52
2023-03-26T21:49:03.388Z,99555.52
2023-03-26T21:51:34.156Z,99554.34
2023-03-26T21:54:31.048Z,99552.13
2023-03-26T21:57:23.156Z,99551.73
2023-03-26T22:00:11.751Z,99545.33
2023-03-26T22:02:53.460Z,99547.34
2023-03-26T22:05:37.313Z,99544.39
2023-03-26T22:08:08.316Z,99542.59
2023-03-26T22:10:37.333Z,99548.71
2023-03-26T22:13:10.841Z,99544.16
2023-03-26T22:15:41.093Z,99543.43
2023-03-26T22:18:09.714Z,99547.17
2023-03-26T22:20:46.783Z,99545.89
2023-03-26T22:23:16.777Z,99542.45
2023-03-26T22:25:46.219Z,99540.19
2023-03-26T22:28:14.832Z,99536.73
2023-03-26T22:30:43.359Z,99537.89
2023-03-26T22:33:18.086Z,99539.09
2023-03-26T22:35:47.691Z,99536.96
2023-03-26T22:38:17.365Z,99542.67
2023-03-26T22:40:46.905Z,99541.11
2023-03-26T22:43:16.196Z,99540.49
2023-03-26T22:45:51.471Z,99546.63
2023-03-26T22:48:20.481Z,99546.34
2023-03-26T22:51:06.550Z,99544.10
2023-03-26T22:53:36.183Z,99543.66
2023-03-26T22:56:05.445Z,99538.93
2023-03-26T22:58:35.895Z,99540.88
2023-03-26T23:01:12.541Z,99538.30
2023-03-26T23:03:41.612Z,99538.09
2023-03-26T23:06:12.300Z,99537.44
2023-03-26T23:08:41.444Z,99539.85
2023-03-26T23:11:14.655Z,99539.67
2023-03-26T23:13:43.921Z,99544.55
2023-03-26T23:16:13.332Z,99544.77
2023-03-26T23:18:42.432Z,99544.73
2023-03-26T23:21:16.196Z,99539.10
2023-03-26T23:23:44.733Z,99542.68
2023-03-26T23:26:14.969Z,99539.31
2023-03-26T23:28:45.253Z,99538.61
2023-03-26T23:31:14.388Z,99535.80
2023-03-26T23:33:50.556Z,99532.99
2023-03-26T23:36:20.018Z,99530.02
2023-03-26T23:38:49.224Z,99527.73
2023-03-26T23:41:19.944Z,99527.66
2023-03-26T23:43:55.689Z,99528.44
2023-03-26T23:46:30.956Z,99527.05
2023-03-26T23:49:02.673Z,99528.35
2023-03-26T23:51:33.796Z,99532.92
2023-03-26T23:54:02.678Z,99529.58
2023-03-26T23:56:32.639Z,99532.52
2023-03-26T23:59:01.889Z,99528.70
